sensor_id;sensor_type;location;lat;lon;timestamp;pressure;altitude;pressure_sealevel;temperature;humidity
62103;BME280;48077;48.104;11.702;2023-01-25T00:02:05;96913.59;;;-0.91;100.00
62103;BME280;48077;48.104;11.702;2023-01-25T00:04:29;96915.41;;;-0.91;100.00
62103;BME280;48077;48.104;11.702;2023-01-25T00:06:52;96908.34;;;-0.91;100.00
62103;BME280;48077;48.104;11.702;2023-01-25T00:09:16;96914.31;;;-0.89;100.00
62103;BME280;48077;48.104;11.702;2023-01-25T00:11:40;96912.63;;;-0.90;100.00
62103;BME280;48077;48.104;11.702;2023-01-25T00:14:04;96916.09;;;-0.89;100.00
62103;BME280;48077;48.104;11.702;2023-01-25T00:16:28;96905.97;;;-0.94;100.00
62103;BME280;48077;48.104;11.702;2023-01-25T00:18:54;96909.44;;;-0.93;100.00
62103;BME280;48077;48.104;11.702;2023-01-25T00:21:20;96901.94;;;-0.98;100.00
62103;BME280;48077;48.104;11.702;2023-01-25T00:23:44;96908.16;;;-0.99;100.00
62103;BME280;48077;48.104;11.702;2023-01-25T00:26:07;96909.69;;;-0.96;100.00
62103;BME280;48077;48.104;11.702;2023-01-25T00:28:31;96909.94;;;-0.99;100.00
62103;BME280;48077;48.104;11.702;2023-01-25T00:30:59;96905.53;;;-0.99;100.00
62103;BME280;48077;48.104;11.702;2023-01-25T00:35:49;96901.81;;;-0.96;100.00
62103;BME280;48077;48.104;11.702;2023-01-25T00:38:30;96890.78;;;-1.00;100.00
62103;BME280;48077;48.104;11.702;2023-01-25T00:40:56;96892.56;;;-1.00;100.00
62103;BME280;48077;48.104;11.702;2023-01-25T00:43:20;96900.03;;;-0.96;100.00
62103;BME280;48077;48.104;11.702;2023-01-25T00:45:44;96901.81;;;-0.96;100.00
62103;BME280;48077;48.104;11.702;2023-01-25T00:48:07;96898.38;;;-0.97;100.00
62103;BME280;48077;48.104;11.702;2023-01-25T00:50:31;96894.78;;;-0.96;100.00
62103;BME280;48077;48.104;11.702;2023-01-25T00:52:54;96896.97;;;-1.01;100.00
62103;BME280;48077;48.104;11.702;2023-01-25T00:55:17;96901.81;;;-0.96;100.00
62103;BME280;48077;48.104;11.702;2023-01-25T00:57:41;96901.28;;;-1.00;100.00
62103;BME280;48077;48.104;11.702;2023-01-25T01:00:05;96882.75;;;-1.08;100.00
62103;BME280;48077;48.104;11.702;2023-01-25T01:02:29;96906.38;;;-0.98;100.00
62103;BME280;48077;48.104;11.702;2023-01-25T01:04:53;96908.28;;;-1.00;100.00
62103;BME280;48077;48.104;11.702;2023-01-25T01:07:18;96903.88;;;-1.00;100.00
62103;BME280;48077;48.104;11.702;2023-01-25T01:09:41;96901.78;;;-1.06;100.00
62103;BME280;48077;48.104;11.702;2023-01-25T01:12:05;96914.47;;;-1.02;100.00
62103;BME280;48077;48.104;11.702;2023-01-25T01:14:28;96909.38;;;-1.03;100.00
62103;BME280;48077;48.104;11.702;2023-01-25T01:16:52;96906.63;;;-1.02;100.00
62103;BME280;48077;48.104;11.702;2023-01-25T01:19:15;96907.56;;;-1.03;100.00
62103;BME280;48077;48.104;11.702;2023-01-25T01:21:38;96899.72;;;-1.03;100.00
62103;BME280;48077;48.104;11.702;2023-01-25T01:24:02;96890.72;;;-1.10;100.00
62103;BME280;48077;48.104;11.702;2023-01-25T01:26:25;96897.47;;;-1.07;100.00
62103;BME280;48077;48.104;11.702;2023-01-25T01:28:49;96898.88;;;-1.03;100.00
62103;BME280;48077;48.104;11.702;2023-01-25T01:31:18;96895.44;;;-1.04;100.00
62103;BME280;48077;48.104;11.702;2023-01-25T01:33:42;96895.34;;;-1.02;100.00
62103;BME280;48077;48.104;11.702;2023-01-25T01:36:13;96897.09;;;-1.03;100.00
62103;BME280;48077;48.104;11.702;2023-01-25T01:38:37;96891.84;;;-1.03;100.00
62103;BME280;48077;48.104;11.702;2023-01-25T01:41:00;96888.28;;;-1.02;100.00
62103;BME280;48077;48.104;11.702;2023-01-25T01:43:23;96887.59;;;-1.04;100.00
62103;BME280;48077;48.104;11.702;2023-01-25T01:48:35;96871.91;;;-1.15;100.00
62103;BME280;48077;48.104;11.702;2023-01-25T01:51:18;96880.13;;;-1.08;100.00
62103;BME280;48077;48.104;11.702;2023-01-25T01:53:47;96885.22;;;-1.07;100.00
62103;BME280;48077;48.104;11.702;2023-01-25T01:56:15;96885.09;;;-1.05;100.00
62103;BME280;48077;48.104;11.702;2023-01-25T01:58:43;96881.19;;;-1.11;100.00
62103;BME280;48077;48.104;11.702;2023-01-25T02:01:07;96892.13;;;-1.06;100.00
62103;BME280;48077;48.104;11.702;2023-01-25T02:03:30;96893.06;;;-1.07;100.00
62103;BME280;48077;48.104;11.702;2023-01-25T02:08:20;96889.19;;;-1.12;100.00
62103;BME280;48077;48.104;11.702;2023-01-25T02:10:44;96892.16;;;-1.17;100.00
62103;BME280;48077;48.104;11.702;2023-01-25T02:13:08;96892.84;;;-1.15;100.00
62103;BME280;48077;48.104;11.702;2023-01-25T02:15:37;96885.16;;;-1.16;100.00
62103;BME280;48077;48.104;11.702;2023-01-25T02:18:01;96874.22;;;-1.22;100.00
62103;BME280;48077;48.104;11.702;2023-01-25T02:25:49;96883.94;;;-1.12;100.00
62103;BME280;48077;48.104;11.702;2023-01-25T02:28:17;96870.75;;;-1.22;100.00
62103;BME280;48077;48.104;11.702;2023-01-25T02:30:42;96886.91;;;-1.17;100.00
62103;BME280;48077;48.104;11.702;2023-01-25T02:33:06;96885.28;;;-1.18;100.00
62103;BME280;48077;48.104;11.702;2023-01-25T02:37:59;96877.78;;;-1.23;100.00
62103;BME280;48077;48.104;11.702;2023-01-25T02:40:23;96879.31;;;-1.20;100.00
62103;BME280;48077;48.104;11.702;2023-01-25T02:42:46;96875.94;;;-1.11;100.00
62103;BME280;48077;48.104;11.702;2023-01-25T02:45:13;96868.59;;;-1.17;100.00
62103;BME280;48077;48.104;11.702;2023-01-25T02:47:38;96864.44;;;-1.19;100.00
62103;BME280;48077;48.104;11.702;2023-01-25T02:50:02;96859.81;;;-1.27;100.00
62103;BME280;48077;48.104;11.702;2023-01-25T02:52:25;96869.09;;;-1.23;100.00
62103;BME280;48077;48.104;11.702;2023-01-25T02:54:48;96865.53;;;-1.22;100.00
62103;BME280;48077;48.104;11.702;2023-01-25T02:57:12;96867.88;;;-1.19;100.00
62103;BME280;48077;48.104;11.702;2023-01-25T02:59:35;96856.84;;;-1.23;100.00
62103;BME280;48077;48.104;11.702;2023-01-25T03:01:59;96865.03;;;-1.16;100.00
62103;BME280;48077;48.104;11.702;2023-01-25T03:04:22;96860.50;;;-1.14;100.00
62103;BME280;48077;48.104;11.702;2023-01-25T03:06:45;96864.22;;;-1.16;100.00
62103;BME280;48077;48.104;11.702;2023-01-25T03:09:09;96847.44;;;-1.25;100.00
62103;BME280;48077;48.104;11.702;2023-01-25T03:11:33;96860.72;;;-1.17;100.00
62103;BME280;48077;48.104;11.702;2023-01-25T03:13:56;96845.53;;;-1.23;100.00
62103;BME280;48077;48.104;11.702;2023-01-25T03:16:20;96850.75;;;-1.23;100.00
62103;BME280;48077;48.104;11.702;2023-01-25T03:18:43;96852.75;;;-1.15;100.00
62103;BME280;48077;48.104;11.702;2023-01-25T03:21:20;96845.41;;;-1.22;100.00
62103;BME280;48077;48.104;11.702;2023-01-25T03:23:44;96832.00;;;-1.28;100.00
62103;BME280;48077;48.104;11.702;2023-01-25T03:26:09;96856.59;;;-1.19;100.00
62103;BME280;48077;48.104;11.702;2023-01-25T03:28:33;96840.16;;;-1.22;100.00
62103;BME280;48077;48.104;11.702;2023-01-25T03:30:57;96844.59;;;-1.22;100.00
62103;BME280;48077;48.104;11.702;2023-01-25T03:33:20;96846.00;;;-1.18;100.00
62103;BME280;48077;48.104;11.702;2023-01-25T03:35:43;96851.47;;;-1.21;100.00
62103;BME280;48077;48.104;11.702;2023-01-25T03:38:07;96849.44;;;-1.17;100.00
62103;BME280;48077;48.104;11.702;2023-01-25T03:40:30;96844.19;;;-1.17;100.00
62103;BME280;48077;48.104;11.702;2023-01-25T03:42:53;96847.78;;;-1.18;100.00
62103;BME280;48077;48.104;11.702;2023-01-25T03:45:17;96846.13;;;-1.19;100.00
62103;BME280;48077;48.104;11.702;2023-01-25T03:47:40;96840.06;;;-1.20;100.00
62103;BME280;48077;48.104;11.702;2023-01-25T03:50:04;96840.88;;;-1.19;100.00
62103;BME280;48077;48.104;11.702;2023-01-25T03:52:27;96841.16;;;-1.23;100.00
62103;BME280;48077;48.104;11.702;2023-01-25T03:54:53;96831.28;;;-1.30;100.00
62103;BME280;48077;48.104;11.702;2023-01-25T03:57:16;96839.47;;;-1.24;100.00
62103;BME280;48077;48.104;11.702;2023-01-25T03:59:40;96836.47;;;-1.19;100.00
62103;BME280;48077;48.104;11.702;2023-01-25T04:02:03;96848.63;;;-1.18;100.00
62103;BME280;48077;48.104;11.702;2023-01-25T04:04:26;96846.81;;;-1.17;100.00
62103;BME280;48077;48.104;11.702;2023-01-25T04:06:50;96841.97;;;-1.22;100.00
62103;BME280;48077;48.104;11.702;2023-01-25T04:09:13;96846.00;;;-1.18;100.00
62103;BME280;48077;48.104;11.702;2023-01-25T04:11:37;96843.50;;;-1.19;100.00
62103;BME280;48077;48.104;11.702;2023-01-25T04:14:00;96841.84;;;-1.20;100.00
62103;BME280;48077;48.104;11.702;2023-01-25T04:16:23;96830.91;;;-1.26;100.00
62103;BME280;48077;48.104;11.702;2023-01-25T04:18:47;96816.91;;;-1.36;100.00
62103;BME280;48077;48.104;11.702;2023-01-25T04:21:10;96829.25;;;-1.27;100.00
62103;BME280;48077;48.104;11.702;2023-01-25T04:23:33;96829.25;;;-1.27;100.00
62103;BME280;48077;48.104;11.702;2023-01-25T04:25:59;96826.75;;;-1.28;100.00
62103;BME280;48077;48.104;11.702;2023-01-25T04:28:23;96826.50;;;-1.25;100.00
62103;BME280;48077;48.104;11.702;2023-01-25T04:30:47;96822.47;;;-1.29;100.00
62103;BME280;48077;48.104;11.702;2023-01-25T04:33:10;96820.69;;;-1.29;100.00
62103;BME280;48077;48.104;11.702;2023-01-25T04:35:34;96823.16;;;-1.27;100.00
62103;BME280;48077;48.104;11.702;2023-01-25T04:37:58;96819.34;;;-1.23;100.00
62103;BME280;48077;48.104;11.702;2023-01-25T04:40:22;96818.91;;;-1.28;100.00
62103;BME280;48077;48.104;11.702;2023-01-25T04:42:45;96821.25;;;-1.25;100.00
62103;BME280;48077;48.104;11.702;2023-01-25T04:45:09;96807.72;;;-1.30;100.00
62103;BME280;48077;48.104;11.702;2023-01-25T04:47:33;96808.72;;;-1.31;100.00
62103;BME280;48077;48.104;11.702;2023-01-25T04:49:56;96813.25;;;-1.33;100.00
62103;BME280;48077;48.104;11.702;2023-01-25T04:52:19;96817.22;;;-1.29;100.00
62103;BME280;48077;48.104;11.702;2023-01-25T04:54:43;96804.81;;;-1.37;100.00
62103;BME280;48077;48.104;11.702;2023-01-25T04:57:06;96808.44;;;-1.28;100.00
62103;BME280;48077;48.104;11.702;2023-01-25T04:59:29;96795.84;;;-1.34;100.00
62103;BME280;48077;48.104;11.702;2023-01-25T05:01:53;96804.28;;;-1.31;100.00
62103;BME280;48077;48.104;11.702;2023-01-25T05:04:16;96799.88;;;-1.30;100.00
62103;BME280;48077;48.104;11.702;2023-01-25T05:06:39;96797.16;;;-1.29;100.00
62103;BME280;48077;48.104;11.702;2023-01-25T05:09:03;96785.78;;;-1.39;100.00
62103;BME280;48077;48.104;11.702;2023-01-25T05:11:26;96799.28;;;-1.34;100.00
62103;BME280;48077;48.104;11.702;2023-01-25T05:13:49;96791.44;;;-1.34;100.00
62103;BME280;48077;48.104;11.702;2023-01-25T05:16:14;96790.63;;;-1.34;100.00
62103;BME280;48077;48.104;11.702;2023-01-25T05:18:37;96796.44;;;-1.31;100.00
62103;BME280;48077;48.104;11.702;2023-01-25T05:21:00;96790.63;;;-1.34;100.00
62103;BME280;48077;48.104;11.702;2023-01-25T05:23:24;96768.34;;;-1.50;100.00
62103;BME280;48077;48.104;11.702;2023-01-25T05:25:47;96792.03;;;-1.30;100.00
62103;BME280;48077;48.104;11.702;2023-01-25T05:28:29;96797.38;;;-1.32;100.00
62103;BME280;48077;48.104;11.702;2023-01-25T05:30:52;96788.81;;;-1.34;100.00
62103;BME280;48077;48.104;11.702;2023-01-25T05:33:16;96793.25;;;-1.34;100.00
62103;BME280;48077;48.104;11.702;2023-01-25T05:35:40;96791.44;;;-1.34;100.00
62103;BME280;48077;48.104;11.702;2023-01-25T05:38:03;96783.97;;;-1.38;100.00
62103;BME280;48077;48.104;11.702;2023-01-25T05:40:27;96787.19;;;-1.35;100.00
62103;BME280;48077;48.104;11.702;2023-01-25T05:42:54;96789.78;;;-1.35;100.00
62103;BME280;48077;48.104;11.702;2023-01-25T05:45:18;96774.84;;;-1.44;100.00
62103;BME280;48077;48.104;11.702;2023-01-25T05:47:41;96784.09;;;-1.40;100.00
62103;BME280;48077;48.104;11.702;2023-01-25T05:50:05;96784.38;;;-1.43;100.00
62103;BME280;48077;48.104;11.702;2023-01-25T05:52:28;96788.78;;;-1.44;100.00
62103;BME280;48077;48.104;11.702;2023-01-25T05:54:52;96791.13;;;-1.40;100.00
62103;BME280;48077;48.104;11.702;2023-01-25T05:57:15;96789.59;;;-1.43;100.00
62103;BME280;48077;48.104;11.702;2023-01-25T05:59:38;96773.00;;;-1.53;100.00
62103;BME280;48077;48.104;11.702;2023-01-25T06:02:02;96787.09;;;-1.45;100.00
62103;BME280;48077;48.104;11.702;2023-01-25T06:04:25;96770.25;;;-1.52;100.00
62103;BME280;48077;48.104;11.702;2023-01-25T06:06:48;96776.50;;;-1.43;100.00
62103;BME280;48077;48.104;11.702;2023-01-25T06:09:12;96784.38;;;-1.43;100.00
62103;BME280;48077;48.104;11.702;2023-01-25T06:11:36;96774.41;;;-1.49;100.00
62103;BME280;48077;48.104;11.702;2023-01-25T06:13:59;96779.38;;;-1.46;100.00
62103;BME280;48077;48.104;11.702;2023-01-25T06:16:22;96774.13;;;-1.46;100.00
62103;BME280;48077;48.104;11.702;2023-01-25T06:18:46;96769.75;;;-1.46;100.00
62103;BME280;48077;48.104;11.702;2023-01-25T06:21:10;96774.84;;;-1.44;100.00
62103;BME280;48077;48.104;11.702;2023-01-25T06:23:33;96771.28;;;-1.43;100.00
62103;BME280;48077;48.104;11.702;2023-01-25T06:25:58;96759.41;;;-1.47;100.00
62103;BME280;48077;48.104;11.702;2023-01-25T06:28:21;96762.03;;;-1.47;100.00
62103;BME280;48077;48.104;11.702;2023-01-25T06:30:45;96759.53;;;-1.49;100.00
62103;BME280;48077;48.104;11.702;2023-01-25T06:33:08;96771.97;;;-1.41;100.00
62103;BME280;48077;48.104;11.702;2023-01-25T06:35:32;96766.97;;;-1.44;100.00
62103;BME280;48077;48.104;11.702;2023-01-25T06:37:57;96774.31;;;-1.38;100.00
62103;BME280;48077;48.104;11.702;2023-01-25T06:40:20;96755.09;;;-1.48;100.00
62103;BME280;48077;48.104;11.702;2023-01-25T06:42:44;96763.44;;;-1.43;100.00
62103;BME280;48077;48.104;11.702;2023-01-25T06:45:08;96767.44;;;-1.39;100.00
62103;BME280;48077;48.104;11.702;2023-01-25T06:47:31;96772.69;;;-1.39;100.00
62103;BME280;48077;48.104;11.702;2023-01-25T06:49:54;96760.53;;;-1.40;100.00
62103;BME280;48077;48.104;11.702;2023-01-25T06:52:18;96763.16;;;-1.40;100.00
62103;BME280;48077;48.104;11.702;2023-01-25T06:54:41;96745.69;;;-1.39;100.00
62103;BME280;48077;48.104;11.702;2023-01-25T06:57:04;96739.88;;;-1.43;100.00
62103;BME280;48077;48.104;11.702;2023-01-25T06:59:28;96737.69;;;-1.38;100.00
62103;BME280;48077;48.104;11.702;2023-01-25T07:01:51;96720.16;;;-1.47;100.00
62103;BME280;48077;48.104;11.702;2023-01-25T07:04:15;96725.97;;;-1.44;100.00
62103;BME280;48077;48.104;11.702;2023-01-25T07:06:38;96721.28;;;-1.40;100.00
62103;BME280;48077;48.104;11.702;2023-01-25T07:09:07;96719.06;;;-1.45;100.00
62103;BME280;48077;48.104;11.702;2023-01-25T07:11:31;96734.00;;;-1.35;100.00
62103;BME280;48077;48.104;11.702;2023-01-25T07:13:54;96749.72;;;-1.35;100.00
62103;BME280;48077;48.104;11.702;2023-01-25T07:16:18;96736.16;;;-1.40;100.00
62103;BME280;48077;48.104;11.702;2023-01-25T07:18:42;96735.91;;;-1.37;100.00
62103;BME280;48077;48.104;11.702;2023-01-25T07:21:11;96728.69;;;-1.45;100.00
62103;BME280;48077;48.104;11.702;2023-01-25T07:23:35;96719.19;;;-1.46;100.00
62103;BME280;48077;48.104;11.702;2023-01-25T07:26:00;96726.78;;;-1.43;100.00
62103;BME280;48077;48.104;11.702;2023-01-25T07:28:23;96735.34;;;-1.41;100.00
62103;BME280;48077;48.104;11.702;2023-01-25T07:30:47;96735.22;;;-1.39;100.00
62103;BME280;48077;48.104;11.702;2023-01-25T07:33:11;96733.53;;;-1.40;100.00
62103;BME280;48077;48.104;11.702;2023-01-25T07:35:35;96717.06;;;-1.52;100.00
62103;BME280;48077;48.104;11.702;2023-01-25T07:37:58;96726.19;;;-1.47;100.00
62103;BME280;48077;48.104;11.702;2023-01-25T07:40:22;96722.88;;;-1.49;100.00
62103;BME280;48077;48.104;11.702;2023-01-25T07:42:47;96730.22;;;-1.43;100.00
62103;BME280;48077;48.104;11.702;2023-01-25T07:45:10;96728.44;;;-1.42;100.00
62103;BME280;48077;48.104;11.702;2023-01-25T07:47:34;96720.97;;;-1.47;100.00
62103;BME280;48077;48.104;11.702;2023-01-25T07:49:57;96727.03;;;-1.46;100.00
62103;BME280;48077;48.104;11.702;2023-01-25T07:52:20;96720.53;;;-1.52;100.00
62103;BME280;48077;48.104;11.702;2023-01-25T07:54:44;96733.84;;;-1.34;100.00
62103;BME280;48077;48.104;11.702;2023-01-25T07:57:09;96734.25;;;-1.38;100.00
62103;BME280;48077;48.104;11.702;2023-01-25T07:59:35;96740.56;;;-1.41;100.00
62103;BME280;48077;48.104;11.702;2023-01-25T08:01:58;96733.44;;;-1.39;100.00
62103;BME280;48077;48.104;11.702;2023-01-25T08:04:22;96729.63;;;-1.46;100.00
62103;BME280;48077;48.104;11.702;2023-01-25T08:06:45;96740.69;;;-1.43;100.00
62103;BME280;48077;48.104;11.702;2023-01-25T08:09:15;96736.16;;;-1.40;100.00
62103;BME280;48077;48.104;11.702;2023-01-25T08:11:42;96725.38;;;-1.47;100.00
62103;BME280;48077;48.104;11.702;2023-01-25T08:14:05;96740.19;;;-1.36;100.00
62103;BME280;48077;48.104;11.702;2023-01-25T08:16:30;96726.16;;;-1.35;100.00
62103;BME280;48077;48.104;11.702;2023-01-25T08:18:55;96721.97;;;-1.38;100.00
62103;BME280;48077;48.104;11.702;2023-01-25T08:21:20;96729.31;;;-1.32;100.00
62103;BME280;48077;48.104;11.702;2023-01-25T08:23:46;96703.94;;;-1.41;100.00
62103;BME280;48077;48.104;11.702;2023-01-25T08:26:12;96726.47;;;-1.29;100.00
62103;BME280;48077;48.104;11.702;2023-01-25T08:28:36;96720.91;;;-1.35;100.00
62103;BME280;48077;48.104;11.702;2023-01-25T08:31:16;96729.31;;;-1.32;100.00
62103;BME280;48077;48.104;11.702;2023-01-25T08:33:42;96721.03;;;-1.37;100.00
62103;BME280;48077;48.104;11.702;2023-01-25T08:36:09;96726.50;;;-1.40;100.00
62103;BME280;48077;48.104;11.702;2023-01-25T08:38:33;96733.16;;;-1.36;100.00
62103;BME280;48077;48.104;11.702;2023-01-25T08:41:07;96728.38;;;-1.31;100.00
62103;BME280;48077;48.104;11.702;2023-01-25T08:43:30;96730.84;;;-1.29;100.00
62103;BME280;48077;48.104;11.702;2023-01-25T08:45:57;96726.00;;;-1.34;100.00
62103;BME280;48077;48.104;11.702;2023-01-25T08:48:21;96722.97;;;-1.39;100.00
62103;BME280;48077;48.104;11.702;2023-01-25T08:50:45;96721.97;;;-1.38;100.00
62103;BME280;48077;48.104;11.702;2023-01-25T08:53:09;96713.31;;;-1.38;100.00
62103;BME280;48077;48.104;11.702;2023-01-25T08:55:34;96715.41;;;-1.32;100.00
62103;BME280;48077;48.104;11.702;2023-01-25T08:57:58;96715.53;;;-1.34;100.00
62103;BME280;48077;48.104;11.702;2023-01-25T09:00:21;96710.59;;;-1.27;100.00
62103;BME280;48077;48.104;11.702;2023-01-25T09:02:45;96705.75;;;-1.32;100.00
62103;BME280;48077;48.104;11.702;2023-01-25T09:05:08;96702.31;;;-1.32;100.00
62103;BME280;48077;48.104;11.702;2023-01-25T09:07:32;96698.75;;;-1.31;100.00
62103;BME280;48077;48.104;11.702;2023-01-25T09:09:59;96675.38;;;-1.44;100.00
62103;BME280;48077;48.104;11.702;2023-01-25T09:12:23;96693.38;;;-1.30;100.00
62103;BME280;48077;48.104;11.702;2023-01-25T09:14:46;96701.09;;;-1.28;100.00
62103;BME280;48077;48.104;11.702;2023-01-25T09:17:10;96692.13;;;-1.35;100.00
62103;BME280;48077;48.104;11.702;2023-01-25T09:19:34;96704.38;;;-1.36;100.00
62103;BME280;48077;48.104;11.702;2023-01-25T09:21:57;96706.16;;;-1.36;100.00
62103;BME280;48077;48.104;11.702;2023-01-25T09:24:20;96702.44;;;-1.34;100.00
62103;BME280;48077;48.104;11.702;2023-01-25T09:26:44;96701.44;;;-1.43;100.00
62103;BME280;48077;48.104;11.702;2023-01-25T09:29:11;96704.44;;;-1.47;100.00
62103;BME280;48077;48.104;11.702;2023-01-25T09:31:36;96691.06;;;-1.54;100.00
62103;BME280;48077;48.104;11.702;2023-01-25T09:34:02;96705.25;;;-1.47;100.00
62103;BME280;48077;48.104;11.702;2023-01-25T09:36:25;96696.31;;;-1.44;100.00
62103;BME280;48077;48.104;11.702;2023-01-25T09:38:48;96686.13;;;-1.47;100.00
62103;BME280;48077;48.104;11.702;2023-01-25T09:46:40;96684.41;;;-1.37;100.00
62103;BME280;48077;48.104;11.702;2023-01-25T09:55:17;96690.75;;;-1.30;100.00
62103;BME280;48077;48.104;11.702;2023-01-25T09:57:42;96681.19;;;-1.40;100.00
62103;BME280;48077;48.104;11.702;2023-01-25T10:00:37;96685.09;;;-1.35;100.00
62103;BME280;48077;48.104;11.702;2023-01-25T10:05:47;96681.50;;;-1.34;100.00
62103;BME280;48077;48.104;11.702;2023-01-25T10:08:23;96676.28;;;-1.34;100.00
62103;BME280;48077;48.104;11.702;2023-01-25T10:10:53;96655.03;;;-1.40;100.00
62103;BME280;48077;48.104;11.702;2023-01-25T10:13:23;96676.97;;;-1.32;100.00
62103;BME280;48077;48.104;11.702;2023-01-25T10:15:49;96661.97;;;-1.30;100.00
62103;BME280;48077;48.104;11.702;2023-01-25T10:18:19;96661.97;;;-1.30;100.00
62103;BME280;48077;48.104;11.702;2023-01-25T10:20:57;96665.16;;;-1.26;100.00
62103;BME280;48077;48.104;11.702;2023-01-25T10:26:35;96654.56;;;-1.25;100.00
62103;BME280;48077;48.104;11.702;2023-01-25T10:29:06;96652.78;;;-1.24;100.00
62103;BME280;48077;48.104;11.702;2023-01-25T10:34:45;96651.66;;;-1.22;100.00
62103;BME280;48077;48.104;11.702;2023-01-25T10:37:13;96643.94;;;-1.23;100.00
62103;BME280;48077;48.104;11.702;2023-01-25T10:39:41;96638.72;;;-1.23;100.00
62103;BME280;48077;48.104;11.702;2023-01-25T10:42:11;96645.63;;;-1.22;100.00
62103;BME280;48077;48.104;11.702;2023-01-25T10:44:36;96638.00;;;-1.25;100.00
62103;BME280;48077;48.104;11.702;2023-01-25T10:47:04;96633.75;;;-1.26;100.00
62103;BME280;48077;48.104;11.702;2023-01-25T10:49:39;96623.91;;;-1.34;100.00
62103;BME280;48077;48.104;11.702;2023-01-25T10:52:18;96630.16;;;-1.25;100.00
62103;BME280;48077;48.104;11.702;2023-01-25T10:54:41;96614.16;;;-1.32;100.00
62103;BME280;48077;48.104;11.702;2023-01-25T10:57:07;96621.47;;;-1.26;100.00
62103;BME280;48077;48.104;11.702;2023-01-25T10:59:31;96625.63;;;-1.23;100.00
62103;BME280;48077;48.104;11.702;2023-01-25T11:01:54;96614.44;;;-1.25;100.00
62103;BME280;48077;48.104;11.702;2023-01-25T11:04:32;96612.00;;;-1.17;100.00
62103;BME280;48077;48.104;11.702;2023-01-25T11:06:58;96606.75;;;-1.17;100.00
62103;BME280;48077;48.104;11.702;2023-01-25T11:11:58;96600.53;;;-1.26;100.00
62103;BME280;48077;48.104;11.702;2023-01-25T11:14:24;96592.44;;;-1.23;100.00
62103;BME280;48077;48.104;11.702;2023-01-25T11:16:51;96585.13;;;-1.19;100.00
62103;BME280;48077;48.104;11.702;2023-01-25T11:19:28;96585.69;;;-1.15;100.00
62103;BME280;48077;48.104;11.702;2023-01-25T11:21:55;96576.31;;;-1.18;100.00
62103;BME280;48077;48.104;11.702;2023-01-25T11:24:20;96571.78;;;-1.16;100.00
62103;BME280;48077;48.104;11.702;2023-01-25T11:26:47;96563.22;;;-1.18;100.00
62103;BME280;48077;48.104;11.702;2023-01-25T11:29:16;96563.97;;;-1.06;100.00
62103;BME280;48077;48.104;11.702;2023-01-25T11:31:42;96561.31;;;-1.16;100.00
62103;BME280;48077;48.104;11.702;2023-01-25T11:34:16;96568.47;;;-1.18;100.00
62103;BME280;48077;48.104;11.702;2023-01-25T11:39:54;96558.69;;;-1.16;100.00
62103;BME280;48077;48.104;11.702;2023-01-25T11:42:37;96557.59;;;-1.13;100.00
62103;BME280;48077;48.104;11.702;2023-01-25T11:48:12;96540.25;;;-1.14;100.00
62103;BME280;48077;48.104;11.702;2023-01-25T11:50:44;96536.22;;;-1.18;100.00
62103;BME280;48077;48.104;11.702;2023-01-25T11:55:57;96529.59;;;-1.13;100.00
62103;BME280;48077;48.104;11.702;2023-01-25T11:58:44;96526.75;;;-1.10;100.00
62103;BME280;48077;48.104;11.702;2023-01-25T12:01:33;96512.66;;;-1.09;100.00
62103;BME280;48077;48.104;11.702;2023-01-25T12:07:03;96502.47;;;-1.12;100.00
62103;BME280;48077;48.104;11.702;2023-01-25T12:13:00;96489.09;;;-1.09;100.00
62103;BME280;48077;48.104;11.702;2023-01-25T12:18:25;96477.00;;;-1.10;100.00
62103;BME280;48077;48.104;11.702;2023-01-25T12:21:04;96474.63;;;-1.13;100.00
62103;BME280;48077;48.104;11.702;2023-01-25T12:32:00;96458.78;;;-1.21;100.00
62103;BME280;48077;48.104;11.702;2023-01-25T12:34:34;96425.16;;;-1.35;100.00
62103;BME280;48077;48.104;11.702;2023-01-25T12:37:11;96448.84;;;-1.17;100.00
62103;BME280;48077;48.104;11.702;2023-01-25T12:39:41;96439.22;;;-1.17;100.00
62103;BME280;48077;48.104;11.702;2023-01-25T12:42:36;96439.50;;;-1.20;100.00
62103;BME280;48077;48.104;11.702;2023-01-25T12:45:24;96440.19;;;-1.18;100.00
62103;BME280;48077;48.104;11.702;2023-01-25T12:47:56;96439.38;;;-1.18;100.00
62103;BME280;48077;48.104;11.702;2023-01-25T12:50:30;96439.22;;;-1.17;100.00
62103;BME280;48077;48.104;11.702;2023-01-25T12:53:01;96430.66;;;-1.19;100.00
62103;BME280;48077;48.104;11.702;2023-01-25T12:55:27;96423.91;;;-1.22;100.00
62103;BME280;48077;48.104;11.702;2023-01-25T12:58:23;96406.97;;;-1.27;100.00
62103;BME280;48077;48.104;11.702;2023-01-25T13:07:00;96410.56;;;-1.18;100.00
62103;BME280;48077;48.104;11.702;2023-01-25T13:09:57;96420.34;;;-1.11;100.00
62103;BME280;48077;48.104;11.702;2023-01-25T13:12:21;96409.16;;;-1.13;100.00
62103;BME280;48077;48.104;11.702;2023-01-25T13:14:46;96416.91;;;-1.11;100.00
62103;BME280;48077;48.104;11.702;2023-01-25T13:17:24;96415.94;;;-1.10;100.00
62103;BME280;48077;48.104;11.702;2023-01-25T13:19:51;96410.16;;;-1.14;100.00
62103;BME280;48077;48.104;11.702;2023-01-25T13:25:07;96403.09;;;-1.23;100.00
62103;BME280;48077;48.104;11.702;2023-01-25T13:27:32;96392.66;;;-1.33;100.00
62103;BME280;48077;48.104;11.702;2023-01-25T13:30:24;96415.50;;;-1.25;100.00
62103;BME280;48077;48.104;11.702;2023-01-25T13:35:41;96407.66;;;-1.35;100.00
62103;BME280;48077;48.104;11.702;2023-01-25T13:40:37;96406.44;;;-1.31;100.00
62103;BME280;48077;48.104;11.702;2023-01-25T13:43:16;96407.78;;;-1.36;100.00
62103;BME280;48077;48.104;11.702;2023-01-25T13:45:40;96405.47;;;-1.39;100.00
62103;BME280;48077;48.104;11.702;2023-01-25T13:50:33;96379.41;;;-1.51;100.00
62103;BME280;48077;48.104;11.702;2023-01-25T13:53:16;96385.75;;;-1.44;100.00
62103;BME280;48077;48.104;11.702;2023-01-25T13:55:43;96401.03;;;-1.39;100.00
62103;BME280;48077;48.104;11.702;2023-01-25T13:58:10;96389.47;;;-1.36;100.00